Time,TemperatureF,DewpointF,PressureIn,WindDirection,WindDirectionDegrees,WindSpeedMPH,WindSpeedGustMPH,Humidity,HourlyPrecipIn,Conditions,Clouds,dailyrainin,SoftwareType,DateUTC
2013-03-27 00:03:00,40.0,30.0,30.14,NW,322,0.0,-999.0,66,-99.99,,,-99.99,,2013-03-27 04:03:00,
2013-03-27 00:13:00,40.0,30.0,30.14,NW,322,0.0,-999.0,66,-99.99,,,-99.99,,2013-03-27 04:13:00,
2013-03-27 00:23:00,40.0,30.0,30.14,NW,322,0.0,-999.0,66,-99.99,,,-99.99,,2013-03-27 04:23:00,
2013-03-27 00:33:00,40.0,30.0,30.15,NW,322,0.0,-999.0,67,-99.99,,,-99.99,,2013-03-27 04:33:00,
2013-03-27 00:42:00,40.0,30.0,30.15,NW,322,0.0,-999.0,67,-99.99,,,-99.99,,2013-03-27 04:42:00,
2013-03-27 00:53:00,40.0,30.0,30.15,NW,322,0.0,-999.0,67,-99.99,,,-99.99,,2013-03-27 04:53:00,
2013-03-27 01:03:00,41.0,30.0,30.15,NW,322,0.0,-999.0,65,-99.99,,,-99.99,,2013-03-27 05:03:00,
2013-03-27 01:12:00,41.0,30.0,30.15,NW,322,0.0,-999.0,65,-99.99,,,-99.99,,2013-03-27 05:12:00,
2013-03-27 01:23:00,41.0,30.0,30.15,NW,322,0.0,-999.0,65,-99.99,,,-99.99,,2013-03-27 05:23:00,
2013-03-27 01:33:00,41.0,29.0,30.16,NW,326,1.0,-999.0,63,-99.99,,,-99.99,,2013-03-27 05:33:00,
2013-03-27 01:42:00,41.0,29.0,30.16,NW,326,1.0,-999.0,63,-99.99,,,-99.99,,2013-03-27 05:42:00,
2013-03-27 01:52:00,41.0,29.0,30.16,NW,326,1.0,-999.0,63,-99.99,,,-99.99,,2013-03-27 05:52:00,
2013-03-27 02:02:00,42.0,28.0,30.16,NNW,328,1.0,-999.0,58,-99.99,,,-99.99,,2013-03-27 06:02:00,
2013-03-27 02:12:00,42.0,28.0,30.16,NNW,328,1.0,-999.0,58,-99.99,,,-99.99,,2013-03-27 06:12:00,
2013-03-27 02:22:00,42.0,28.0,30.16,NNW,344,1.0,-999.0,57,-99.99,,,-99.99,,2013-03-27 06:22:00,
2013-03-27 02:32:00,42.0,28.0,30.16,NNW,344,1.0,-999.0,57,-99.99,,,-99.99,,2013-03-27 06:32:00,
2013-03-27 02:42:00,42.0,28.0,30.16,NNW,344,1.0,-999.0,57,-99.99,,,-99.99,,2013-03-27 06:42:00,
2013-03-27 02:52:00,41.0,27.0,30.16,NW,322,1.0,-999.0,58,-99.99,,,-99.99,,2013-03-27 06:52:00,
2013-03-27 03:02:00,41.0,27.0,30.16,NW,322,1.0,-999.0,58,-99.99,,,-99.99,,2013-03-27 07:02:00,
2013-03-27 03:12:00,41.0,27.0,30.16,NW,322,1.0,-999.0,58,-99.99,,,-99.99,,2013-03-27 07:12:00,
2013-03-27 03:22:00,40.0,27.0,30.16,North,349,1.0,-999.0,59,-99.99,,,-99.99,,2013-03-27 07:22:00,
2013-03-27 03:32:00,40.0,27.0,30.16,North,349,1.0,-999.0,59,-99.99,,,-99.99,,2013-03-27 07:32:00,
2013-03-27 03:43:00,40.0,27.0,30.16,North,349,1.0,-999.0,59,-99.99,,,-99.99,,2013-03-27 07:43:00,
2013-03-27 03:53:00,40.0,27.0,30.16,North,350,1.0,-999.0,60,-99.99,,,-99.99,,2013-03-27 07:53:00,
2013-03-27 04:02:00,40.0,27.0,30.16,North,350,1.0,-999.0,60,-99.99,,,-99.99,,2013-03-27 08:02:00,
2013-03-27 04:13:00,40.0,27.0,30.16,North,350,1.0,-999.0,60,-99.99,,,-99.99,,2013-03-27 08:13:00,
2013-03-27 04:22:00,39.0,26.0,30.16,NNW,336,1.0,-999.0,60,-99.99,,,-99.99,,2013-03-27 08:22:00,
2013-03-27 04:32:00,39.0,27.0,30.16,NNW,336,1.0,-999.0,61,-99.99,,,-99.99,,2013-03-27 08:32:00,
2013-03-27 04:43:00,39.0,27.0,30.16,NNW,336,1.0,-999.0,61,-99.99,,,-99.99,,2013-03-27 08:43:00,
2013-03-27 04:52:00,39.0,27.0,30.16,NNW,336,2.0,-999.0,61,-99.99,,,-99.99,,2013-03-27 08:52:00,
2013-03-27 05:02:00,39.0,27.0,30.16,NNW,339,1.0,-999.0,61,-99.99,,,-99.99,,2013-03-27 09:02:00,
2013-03-27 05:12:00,39.0,27.0,30.16,NNW,339,1.0,-999.0,61,-99.99,,,-99.99,,2013-03-27 09:12:00,
2013-03-27 05:22:00,39.0,27.0,30.17,NNW,336,2.0,-999.0,61,-99.99,,,-99.99,,2013-03-27 09:22:00,
2013-03-27 05:33:00,39.0,27.0,30.17,NW,315,2.0,-999.0,61,-99.99,,,-99.99,,2013-03-27 09:33:00,
2013-03-27 05:42:00,39.0,27.0,30.17,NW,315,2.0,-999.0,61,-99.99,,,-99.99,,2013-03-27 09:42:00,
2013-03-27 05:52:00,38.0,26.0,30.17,NW,325,2.0,-999.0,61,-99.99,,,-99.99,,2013-03-27 09:52:00,
2013-03-27 06:03:00,38.0,26.0,30.18,NW,325,1.0,-999.0,62,-99.99,,,-99.99,,2013-03-27 10:03:00,
2013-03-27 06:13:00,38.0,26.0,30.18,NW,325,1.0,-999.0,62,-99.99,,,-99.99,,2013-03-27 10:13:00,
2013-03-27 06:23:00,38.0,27.0,30.18,NW,325,1.0,-999.0,63,-99.99,,,-99.99,,2013-03-27 10:23:00,
2013-03-27 06:32:00,37.0,26.0,30.18,NW,325,1.0,-999.0,65,-99.99,,,-99.99,,2013-03-27 10:32:00,
2013-03-27 06:42:00,37.0,26.0,30.18,NW,325,1.0,-999.0,65,-99.99,,,-99.99,,2013-03-27 10:42:00,
2013-03-27 06:52:00,36.0,26.0,30.18,NW,325,1.0,-999.0,66,-99.99,,,-99.99,,2013-03-27 10:52:00,
2013-03-27 07:03:00,35.0,26.0,30.19,NW,325,1.0,-999.0,70,-99.99,,,-99.99,,2013-03-27 11:03:00,
2013-03-27 07:12:00,35.0,26.0,30.19,NW,325,1.0,-999.0,70,-99.99,,,-99.99,,2013-03-27 11:12:00,
2013-03-27 07:22:00,34.0,27.0,30.19,NW,325,1.0,-999.0,75,-99.99,,,-99.99,,2013-03-27 11:22:00,
2013-03-27 07:32:00,33.0,27.0,30.20,NW,325,1.0,-999.0,79,-99.99,,,-99.99,,2013-03-27 11:32:00,
2013-03-27 07:42:00,33.0,27.0,30.20,NW,325,1.0,-999.0,79,-99.99,,,-99.99,,2013-03-27 11:42:00,
2013-03-27 07:52:00,33.0,28.0,30.21,NW,325,1.0,-999.0,81,-99.99,,,-99.99,,2013-03-27 11:52:00,
2013-03-27 08:02:00,33.0,28.0,30.21,NW,325,1.0,-999.0,81,-99.99,,,-99.99,,2013-03-27 12:02:00,
2013-03-27 08:12:00,33.0,28.0,30.21,NW,325,1.0,-999.0,81,-99.99,,,-99.99,,2013-03-27 12:12:00,
2013-03-27 08:23:00,33.0,28.0,30.22,NW,325,1.0,-999.0,81,-99.99,,,-99.99,,2013-03-27 12:23:00,
2013-03-27 08:32:00,34.0,28.0,30.23,NW,323,2.0,-999.0,80,-99.99,,,-99.99,,2013-03-27 12:32:00,
2013-03-27 08:43:00,34.0,28.0,30.23,NW,323,2.0,-999.0,80,-99.99,,,-99.99,,2013-03-27 12:43:00,
2013-03-27 08:52:00,35.0,29.0,30.23,NW,323,2.0,-999.0,77,-99.99,,,-99.99,,2013-03-27 12:52:00,
2013-03-27 09:02:00,36.0,28.0,30.24,NW,320,2.0,-999.0,73,-99.99,,,-99.99,,2013-03-27 13:02:00,
2013-03-27 09:12:00,36.0,28.0,30.24,NW,320,2.0,-999.0,73,-99.99,,,-99.99,,2013-03-27 13:12:00,
2013-03-27 09:22:00,38.0,27.0,30.24,NNW,332,3.0,-999.0,64,-99.99,,,-99.99,,2013-03-27 13:22:00,
2013-03-27 09:32:00,40.0,27.0,30.24,NNW,340,4.0,-999.0,59,-99.99,,,-99.99,,2013-03-27 13:32:00,
2013-03-27 09:42:00,40.0,27.0,30.24,NNW,340,4.0,-999.0,59,-99.99,,,-99.99,,2013-03-27 13:42:00,
2013-03-27 09:52:00,42.0,27.0,30.24,NW,316,4.0,-999.0,56,-99.99,,,-99.99,,2013-03-27 13:52:00,
2013-03-27 10:02:00,43.0,27.0,30.24,NNW,346,4.0,-999.0,53,-99.99,,,-99.99,,2013-03-27 14:02:00,
2013-03-27 10:12:00,43.0,27.0,30.24,NNW,346,4.0,-999.0,53,-99.99,,,-99.99,,2013-03-27 14:12:00,
2013-03-27 10:22:00,44.0,27.0,30.24,North,349,3.0,-999.0,51,-99.99,,,-99.99,,2013-03-27 14:22:00,
2013-03-27 10:32:00,45.0,27.0,30.24,NNW,344,4.0,-999.0,48,-99.99,,,-99.99,,2013-03-27 14:32:00,
2013-03-27 10:42:00,45.0,27.0,30.24,NNW,344,4.0,-999.0,48,-99.99,,,-99.99,,2013-03-27 14:42:00,
2013-03-27 10:52:00,46.0,27.0,30.24,NW,322,6.0,-999.0,47,-99.99,,,-99.99,,2013-03-27 14:52:00,
2013-03-27 11:03:00,47.0,25.0,30.23,WNW,301,3.0,-999.0,42,-99.99,,,-99.99,,2013-03-27 15:03:00,
2013-03-27 11:12:00,47.0,25.0,30.23,WNW,301,3.0,-999.0,42,-99.99,,,-99.99,,2013-03-27 15:12:00,
2013-03-27 11:22:00,47.0,25.0,30.24,North,4,6.0,-999.0,42,-99.99,,,-99.99,,2013-03-27 15:22:00,
2013-03-27 11:33:00,48.0,25.0,30.23,NNW,330,4.0,-999.0,40,-99.99,,,-99.99,,2013-03-27 15:33:00,
2013-03-27 11:43:00,48.0,25.0,30.23,NNW,330,4.0,-999.0,40,-99.99,,,-99.99,,2013-03-27 15:43:00,
2013-03-27 11:52:00,48.0,24.0,30.23,NW,325,3.0,-999.0,38,-99.99,,,-99.99,,2013-03-27 15:52:00,
2013-03-27 12:03:00,48.0,24.0,30.23,NNW,339,4.0,-999.0,39,-99.99,,,-99.99,,2013-03-27 16:03:00,
2013-03-27 12:13:00,48.0,24.0,30.23,NNW,339,4.0,-999.0,39,-99.99,,,-99.99,,2013-03-27 16:13:00,
2013-03-27 12:22:00,49.0,24.0,30.23,WNW,284,4.0,-999.0,37,-99.99,,,-99.99,,2013-03-27 16:22:00,
2013-03-27 12:33:00,50.0,22.0,30.23,NNW,344,3.0,-999.0,33,-99.99,,,-99.99,,2013-03-27 16:33:00,
2013-03-27 12:42:00,50.0,22.0,30.23,NNW,344,3.0,-999.0,33,-99.99,,,-99.99,,2013-03-27 16:42:00,
2013-03-27 12:52:00,50.0,23.0,30.23,NW,322,5.0,-999.0,34,-99.99,,,-99.99,,2013-03-27 16:52:00,
2013-03-27 13:03:00,51.0,24.0,30.23,North,357,3.0,-999.0,34,-99.99,,,-99.99,,2013-03-27 17:03:00,
2013-03-27 13:12:00,51.0,24.0,30.23,North,357,3.0,-999.0,34,-99.99,,,-99.99,,2013-03-27 17:12:00,
2013-03-27 13:22:00,50.0,22.0,30.22,NNW,339,5.0,-999.0,33,-99.99,,,-99.99,,2013-03-27 17:22:00,
2013-03-27 13:32:00,51.0,21.0,30.21,NNW,343,6.0,-999.0,30,-99.99,,,-99.99,,2013-03-27 17:32:00,
2013-03-27 13:44:00,51.0,21.0,30.21,NNW,343,6.0,-999.0,30,-99.99,,,-99.99,,2013-03-27 17:44:00,
2013-03-27 13:52:00,51.0,21.0,30.21,NNW,328,5.0,-999.0,30,-99.99,,,-99.99,,2013-03-27 17:52:00,
2013-03-27 14:02:00,51.0,21.0,30.21,NNW,328,5.0,-999.0,30,-99.99,,,-99.99,,2013-03-27 18:02:00,
2013-03-27 14:12:00,51.0,21.0,30.21,NNW,328,5.0,-999.0,30,-99.99,,,-99.99,,2013-03-27 18:12:00,
2013-03-27 14:23:00,52.0,20.0,30.20,WNW,296,6.0,-999.0,28,-99.99,,,-99.99,,2013-03-27 18:23:00,
2013-03-27 14:32:00,53.0,21.0,30.19,WNW,296,6.0,-999.0,28,-99.99,,,-99.99,,2013-03-27 18:32:00,
2013-03-27 14:42:00,53.0,21.0,30.19,WNW,296,6.0,-999.0,28,-99.99,,,-99.99,,2013-03-27 18:42:00,
2013-03-27 14:52:00,53.0,21.0,30.18,WSW,247,6.0,-999.0,28,-99.99,,,-99.99,,2013-03-27 18:52:00,
2013-03-27 15:03:00,53.0,20.0,30.18,West,265,6.0,-999.0,27,-99.99,,,-99.99,,2013-03-27 19:03:00,
2013-03-27 15:12:00,53.0,20.0,30.18,West,265,6.0,-999.0,27,-99.99,,,-99.99,,2013-03-27 19:12:00,
2013-03-27 15:22:00,54.0,21.0,30.17,NW,311,6.0,-999.0,27,-99.99,,,-99.99,,2013-03-27 19:22:00,
2013-03-27 15:32:00,54.0,22.0,30.16,NW,322,7.0,-999.0,28,-99.99,,,-99.99,,2013-03-27 19:32:00,
2013-03-27 15:42:00,54.0,22.0,30.16,NW,322,7.0,-999.0,28,-99.99,,,-99.99,,2013-03-27 19:42:00,
2013-03-27 15:52:00,54.0,22.0,30.16,North,353,6.0,-999.0,29,-99.99,,,-99.99,,2013-03-27 19:52:00,
2013-03-27 16:03:00,55.0,23.0,30.16,NNW,339,5.0,-999.0,29,-99.99,,,-99.99,,2013-03-27 20:03:00,
2013-03-27 16:12:00,55.0,23.0,30.16,NNW,339,5.0,-999.0,29,-99.99,,,-99.99,,2013-03-27 20:12:00,
2013-03-27 16:22:00,55.0,24.0,30.16,NW,318,4.0,-999.0,30,-99.99,,,-99.99,,2013-03-27 20:22:00,
2013-03-27 16:32:00,56.0,24.0,30.15,NNW,343,5.0,-999.0,29,-99.99,,,-99.99,,2013-03-27 20:32:00,
2013-03-27 16:42:00,56.0,24.0,30.15,NNW,343,5.0,-999.0,29,-99.99,,,-99.99,,2013-03-27 20:42:00,
2013-03-27 16:52:00,55.0,22.0,30.15,NW,311,7.0,-999.0,27,-99.99,,,-99.99,,2013-03-27 20:52:00,
2013-03-27 17:02:00,55.0,23.0,30.15,NNW,344,6.0,-999.0,29,-99.99,,,-99.99,,2013-03-27 21:02:00,
2013-03-27 17:12:00,55.0,23.0,30.15,NNW,344,6.0,-999.0,29,-99.99,,,-99.99,,2013-03-27 21:12:00,
2013-03-27 17:22:00,56.0,23.0,30.15,NW,312,4.0,-999.0,28,-99.99,,,-99.99,,2013-03-27 21:22:00,
2013-03-27 17:32:00,56.0,23.0,30.15,NW,326,3.0,-999.0,28,-99.99,,,-99.99,,2013-03-27 21:32:00,
2013-03-27 17:43:00,56.0,23.0,30.15,NW,326,3.0,-999.0,28,-99.99,,,-99.99,,2013-03-27 21:43:00,
2013-03-27 17:52:00,56.0,23.0,30.15,NNE,18,5.0,-999.0,27,-99.99,,,-99.99,,2013-03-27 21:52:00,
2013-03-27 18:03:00,56.0,23.0,30.15,NNW,333,3.0,-999.0,28,-99.99,,,-99.99,,2013-03-27 22:03:00,
2013-03-27 18:12:00,56.0,23.0,30.15,NNW,333,3.0,-999.0,28,-99.99,,,-99.99,,2013-03-27 22:12:00,
2013-03-27 18:23:00,56.0,23.0,30.15,WNW,296,4.0,-999.0,28,-99.99,,,-99.99,,2013-03-27 22:23:00,
2013-03-27 18:33:00,56.0,24.0,30.15,NW,311,3.0,-999.0,29,-99.99,,,-99.99,,2013-03-27 22:33:00,
2013-03-27 18:42:00,56.0,24.0,30.15,NW,311,3.0,-999.0,29,-99.99,,,-99.99,,2013-03-27 22:42:00,
2013-03-27 18:52:00,56.0,25.0,30.15,NNW,332,1.0,-999.0,30,-99.99,,,-99.99,,2013-03-27 22:52:00,
2013-03-27 19:02:00,55.0,23.0,30.16,SW,233,4.0,-999.0,28,-99.99,,,-99.99,,2013-03-27 23:02:00,
2013-03-27 19:12:00,55.0,23.0,30.16,SW,233,4.0,-999.0,28,-99.99,,,-99.99,,2013-03-27 23:12:00,
2013-03-27 19:22:00,55.0,24.0,30.16,NW,312,2.0,-999.0,30,-99.99,,,-99.99,,2013-03-27 23:22:00,
2013-03-27 19:32:00,54.0,24.0,30.16,NW,318,1.0,-999.0,31,-99.99,,,-99.99,,2013-03-27 23:32:00,
2013-03-27 19:42:00,54.0,24.0,30.16,NW,318,1.0,-999.0,31,-99.99,,,-99.99,,2013-03-27 23:42:00,
2013-03-27 19:52:00,53.0,25.0,30.16,NW,312,1.0,-999.0,33,-99.99,,,-99.99,,2013-03-27 23:52:00,
2013-03-27 20:02:00,52.0,27.0,30.16,NW,312,0.0,-999.0,37,-99.99,,,-99.99,,2013-03-28 00:02:00,
2013-03-27 20:12:00,52.0,27.0,30.16,NW,312,0.0,-999.0,37,-99.99,,,-99.99,,2013-03-28 00:12:00,
2013-03-27 20:22:00,51.0,28.0,30.17,NW,312,0.0,-999.0,40,-99.99,,,-99.99,,2013-03-28 00:22:00,
2013-03-27 20:33:00,50.0,29.0,30.18,NW,312,0.0,-999.0,44,-99.99,,,-99.99,,2013-03-28 00:33:00,
2013-03-27 20:43:00,50.0,29.0,30.18,NW,312,0.0,-999.0,44,-99.99,,,-99.99,,2013-03-28 00:43:00,
2013-03-27 20:52:00,49.0,31.0,30.18,NW,312,0.0,-999.0,49,-99.99,,,-99.99,,2013-03-28 00:52:00,
2013-03-27 21:02:00,48.0,31.0,30.19,NW,312,0.0,-999.0,51,-99.99,,,-99.99,,2013-03-28 01:02:00,
2013-03-27 21:12:00,48.0,31.0,30.19,NW,312,0.0,-999.0,51,-99.99,,,-99.99,,2013-03-28 01:12:00,
2013-03-27 21:22:00,47.0,34.0,30.20,NW,312,0.0,-999.0,60,-99.99,,,-99.99,,2013-03-28 01:22:00,
2013-03-27 21:32:00,45.0,34.0,30.20,NW,312,0.0,-999.0,64,-99.99,,,-99.99,,2013-03-28 01:32:00,
2013-03-27 21:42:00,45.0,34.0,30.20,NW,312,0.0,-999.0,64,-99.99,,,-99.99,,2013-03-28 01:42:00,
2013-03-27 21:52:00,44.0,34.0,30.21,NW,312,0.0,-999.0,69,-99.99,,,-99.99,,2013-03-28 01:52:00,
2013-03-27 22:03:00,43.0,33.0,30.21,NW,312,0.0,-999.0,67,-99.99,,,-99.99,,2013-03-28 02:03:00,
2013-03-27 22:12:00,43.0,33.0,30.21,NW,312,0.0,-999.0,67,-99.99,,,-99.99,,2013-03-28 02:12:00,
2013-03-27 22:22:00,42.0,32.0,30.22,NW,312,0.0,-999.0,68,-99.99,,,-99.99,,2013-03-28 02:22:00,
2013-03-27 22:32:00,41.0,33.0,30.22,NW,312,0.0,-999.0,72,-99.99,,,-99.99,,2013-03-28 02:32:00,
2013-03-27 22:42:00,41.0,33.0,30.22,NW,312,0.0,-999.0,72,-99.99,,,-99.99,,2013-03-28 02:42:00,
2013-03-27 22:52:00,41.0,33.0,30.22,NW,312,0.0,-999.0,72,-99.99,,,-99.99,,2013-03-28 02:52:00,
2013-03-27 23:02:00,40.0,33.0,30.23,NW,312,0.0,-999.0,76,-99.99,,,-99.99,,2013-03-28 03:02:00,
2013-03-27 23:12:00,40.0,33.0,30.23,NW,312,0.0,-999.0,76,-99.99,,,-99.99,,2013-03-28 03:12:00,
2013-03-27 23:22:00,39.0,31.0,30.23,NW,312,0.0,-999.0,74,-99.99,,,-99.99,,2013-03-28 03:22:00,
2013-03-27 23:33:00,38.0,31.0,30.23,NW,312,0.0,-999.0,77,-99.99,,,-99.99,,2013-03-28 03:33:00,
2013-03-27 23:43:00,38.0,31.0,30.23,NW,312,0.0,-999.0,77,-99.99,,,-99.99,,2013-03-28 03:43:00,
2013-03-27 23:52:00,38.0,32.0,30.23,NW,312,0.0,-999.0,80,-99.99,,,-99.99,,2013-03-28 03:52:00,